sensor_id;sensor_type;location;lat;lon;timestamp;P1;durP1;ratioP1;P2;durP2;ratioP2
38379;SDS011;38377;47.418;18.882;2023-04-01T00:02:19;8.40;;;4.45;;
38379;SDS011;38377;47.418;18.882;2023-04-01T00:04:45;6.60;;;4.53;;
38379;SDS011;38377;47.418;18.882;2023-04-01T00:07:10;6.68;;;5.30;;
38379;SDS011;38377;47.418;18.882;2023-04-01T00:09:37;8.32;;;6.35;;
38379;SDS011;38377;47.418;18.882;2023-04-01T00:12:03;11.52;;;7.97;;
38379;SDS011;38377;47.418;18.882;2023-04-01T00:14:29;11.25;;;8.05;;
38379;SDS011;38377;47.418;18.882;2023-04-01T00:16:55;13.90;;;9.15;;
38379;SDS011;38377;47.418;18.882;2023-04-01T00:19:21;13.63;;;8.52;;
38379;SDS011;38377;47.418;18.882;2023-04-01T00:21:47;14.65;;;8.75;;
38379;SDS011;38377;47.418;18.882;2023-04-01T00:24:13;13.98;;;9.55;;
38379;SDS011;38377;47.418;18.882;2023-04-01T00:26:39;13.30;;;9.40;;
38379;SDS011;38377;47.418;18.882;2023-04-01T00:29:07;12.40;;;9.13;;
38379;SDS011;38377;47.418;18.882;2023-04-01T00:31:33;11.43;;;9.35;;
38379;SDS011;38377;47.418;18.882;2023-04-01T00:33:59;13.73;;;10.00;;
38379;SDS011;38377;47.418;18.882;2023-04-01T00:36:24;16.85;;;11.07;;
38379;SDS011;38377;47.418;18.882;2023-04-01T00:38:50;12.52;;;9.00;;
38379;SDS011;38377;47.418;18.882;2023-04-01T00:41:17;13.52;;;10.10;;
38379;SDS011;38377;47.418;18.882;2023-04-01T00:43:44;14.52;;;9.88;;
38379;SDS011;38377;47.418;18.882;2023-04-01T00:46:11;15.15;;;10.18;;
38379;SDS011;38377;47.418;18.882;2023-04-01T00:49:10;11.75;;;9.48;;
38379;SDS011;38377;47.418;18.882;2023-04-01T00:51:29;14.43;;;9.73;;
38379;SDS011;38377;47.418;18.882;2023-04-01T00:53:56;18.75;;;10.45;;
38379;SDS011;38377;47.418;18.882;2023-04-01T00:56:26;13.85;;;9.68;;
38379;SDS011;38377;47.418;18.882;2023-04-01T00:58:59;11.90;;;9.07;;
38379;SDS011;38377;47.418;18.882;2023-04-01T01:01:28;14.07;;;8.90;;
38379;SDS011;38377;47.418;18.882;2023-04-01T01:03:55;10.65;;;8.13;;
38379;SDS011;38377;47.418;18.882;2023-04-01T01:09:34;11.98;;;9.48;;
38379;SDS011;38377;47.418;18.882;2023-04-01T01:14:51;13.88;;;9.32;;
38379;SDS011;38377;47.418;18.882;2023-04-01T01:20:19;16.15;;;11.18;;
38379;SDS011;38377;47.418;18.882;2023-04-01T01:34:34;18.58;;;12.80;;
38379;SDS011;38377;47.418;18.882;2023-04-01T01:37:20;15.32;;;10.88;;
38379;SDS011;38377;47.418;18.882;2023-04-01T01:39:52;11.93;;;8.60;;
38379;SDS011;38377;47.418;18.882;2023-04-01T01:42:21;17.17;;;11.55;;
38379;SDS011;38377;47.418;18.882;2023-04-01T01:44:49;14.18;;;10.77;;
38379;SDS011;38377;47.418;18.882;2023-04-01T01:47:17;19.73;;;11.57;;
38379;SDS011;38377;47.418;18.882;2023-04-01T01:49:44;14.60;;;10.63;;
38379;SDS011;38377;47.418;18.882;2023-04-01T01:52:12;14.25;;;9.85;;
38379;SDS011;38377;47.418;18.882;2023-04-01T01:54:48;12.82;;;9.15;;
38379;SDS011;38377;47.418;18.882;2023-04-01T01:57:20;11.80;;;8.85;;
38379;SDS011;38377;47.418;18.882;2023-04-01T01:59:50;11.30;;;8.63;;
38379;SDS011;38377;47.418;18.882;2023-04-01T02:02:19;9.57;;;6.78;;
38379;SDS011;38377;47.418;18.882;2023-04-01T02:04:47;10.05;;;7.35;;
38379;SDS011;38377;47.418;18.882;2023-04-01T02:07:21;9.25;;;6.97;;
38379;SDS011;38377;47.418;18.882;2023-04-01T02:09:51;9.30;;;6.85;;
38379;SDS011;38377;47.418;18.882;2023-04-01T02:12:17;9.43;;;6.43;;
38379;SDS011;38377;47.418;18.882;2023-04-01T02:17:19;9.40;;;7.07;;
38379;SDS011;38377;47.418;18.882;2023-04-01T02:19:48;8.27;;;6.40;;
38379;SDS011;38377;47.418;18.882;2023-04-01T02:22:16;9.93;;;7.07;;
38379;SDS011;38377;47.418;18.882;2023-04-01T02:24:46;9.57;;;6.97;;
38379;SDS011;38377;47.418;18.882;2023-04-01T02:27:14;10.43;;;6.35;;
38379;SDS011;38377;47.418;18.882;2023-04-01T02:29:40;9.75;;;6.15;;
38379;SDS011;38377;47.418;18.882;2023-04-01T02:32:05;8.50;;;6.18;;
38379;SDS011;38377;47.418;18.882;2023-04-01T02:34:33;8.40;;;6.10;;
38379;SDS011;38377;47.418;18.882;2023-04-01T02:36:59;6.60;;;5.43;;
38379;SDS011;38377;47.418;18.882;2023-04-01T02:39:25;8.02;;;5.30;;
38379;SDS011;38377;47.418;18.882;2023-04-01T02:41:51;8.40;;;5.72;;
38379;SDS011;38377;47.418;18.882;2023-04-01T02:44:17;6.20;;;5.05;;
38379;SDS011;38377;47.418;18.882;2023-04-01T02:46:43;5.00;;;4.20;;
38379;SDS011;38377;47.418;18.882;2023-04-01T02:49:09;8.27;;;4.88;;
38379;SDS011;38377;47.418;18.882;2023-04-01T02:51:35;6.47;;;4.43;;
38379;SDS011;38377;47.418;18.882;2023-04-01T02:54:01;7.82;;;5.63;;
38379;SDS011;38377;47.418;18.882;2023-04-01T02:56:26;7.05;;;4.97;;
38379;SDS011;38377;47.418;18.882;2023-04-01T02:58:53;7.63;;;5.00;;
38379;SDS011;38377;47.418;18.882;2023-04-01T03:01:19;6.10;;;5.13;;
38379;SDS011;38377;47.418;18.882;2023-04-01T03:03:45;6.03;;;4.75;;
38379;SDS011;38377;47.418;18.882;2023-04-01T03:06:12;7.30;;;4.68;;
38379;SDS011;38377;47.418;18.882;2023-04-01T03:08:39;6.95;;;4.63;;
38379;SDS011;38377;47.418;18.882;2023-04-01T03:11:04;5.93;;;4.72;;
38379;SDS011;38377;47.418;18.882;2023-04-01T03:13:31;8.70;;;4.55;;
38379;SDS011;38377;47.418;18.882;2023-04-01T03:15:57;6.32;;;4.93;;
38379;SDS011;38377;47.418;18.882;2023-04-01T03:18:22;7.13;;;3.53;;
38379;SDS011;38377;47.418;18.882;2023-04-01T03:20:48;5.55;;;3.70;;
38379;SDS011;38377;47.418;18.882;2023-04-01T03:23:14;6.25;;;4.90;;
38379;SDS011;38377;47.418;18.882;2023-04-01T03:25:42;6.72;;;4.72;;
38379;SDS011;38377;47.418;18.882;2023-04-01T03:28:08;5.57;;;4.47;;
38379;SDS011;38377;47.418;18.882;2023-04-01T03:30:35;6.88;;;5.30;;
38379;SDS011;38377;47.418;18.882;2023-04-01T03:33:00;8.00;;;5.10;;
38379;SDS011;38377;47.418;18.882;2023-04-01T03:35:27;6.45;;;5.25;;
38379;SDS011;38377;47.418;18.882;2023-04-01T03:37:53;6.85;;;5.13;;
38379;SDS011;38377;47.418;18.882;2023-04-01T03:40:19;9.27;;;5.00;;
38379;SDS011;38377;47.418;18.882;2023-04-01T03:42:45;6.40;;;5.25;;
38379;SDS011;38377;47.418;18.882;2023-04-01T03:45:11;8.27;;;4.78;;
38379;SDS011;38377;47.418;18.882;2023-04-01T03:47:38;8.93;;;5.13;;
38379;SDS011;38377;47.418;18.882;2023-04-01T03:50:04;7.63;;;4.88;;
38379;SDS011;38377;47.418;18.882;2023-04-01T03:52:31;8.20;;;5.13;;
38379;SDS011;38377;47.418;18.882;2023-04-01T03:54:57;7.20;;;4.15;;
38379;SDS011;38377;47.418;18.882;2023-04-01T03:57:23;7.22;;;4.20;;
38379;SDS011;38377;47.418;18.882;2023-04-01T03:59:48;5.78;;;3.70;;
38379;SDS011;38377;47.418;18.882;2023-04-01T04:02:14;4.60;;;3.78;;
38379;SDS011;38377;47.418;18.882;2023-04-01T04:04:40;4.38;;;3.28;;
38379;SDS011;38377;47.418;18.882;2023-04-01T04:07:06;4.85;;;2.70;;
38379;SDS011;38377;47.418;18.882;2023-04-01T04:09:32;4.75;;;2.75;;
38379;SDS011;38377;47.418;18.882;2023-04-01T04:11:58;4.30;;;3.35;;
38379;SDS011;38377;47.418;18.882;2023-04-01T04:14:24;4.32;;;2.95;;
38379;SDS011;38377;47.418;18.882;2023-04-01T04:16:50;4.65;;;2.85;;
38379;SDS011;38377;47.418;18.882;2023-04-01T04:19:16;3.45;;;2.60;;
38379;SDS011;38377;47.418;18.882;2023-04-01T04:21:42;2.80;;;1.88;;
38379;SDS011;38377;47.418;18.882;2023-04-01T04:24:07;3.17;;;2.08;;
38379;SDS011;38377;47.418;18.882;2023-04-01T04:26:34;2.88;;;1.80;;
38379;SDS011;38377;47.418;18.882;2023-04-01T04:29:00;3.92;;;2.00;;
38379;SDS011;38377;47.418;18.882;2023-04-01T04:31:26;2.38;;;1.63;;
38379;SDS011;38377;47.418;18.882;2023-04-01T04:33:52;4.10;;;1.50;;
38379;SDS011;38377;47.418;18.882;2023-04-01T04:36:18;2.38;;;1.60;;
38379;SDS011;38377;47.418;18.882;2023-04-01T04:38:45;3.30;;;1.60;;
38379;SDS011;38377;47.418;18.882;2023-04-01T04:41:15;4.20;;;1.60;;
38379;SDS011;38377;47.418;18.882;2023-04-01T04:46:13;2.15;;;1.20;;
38379;SDS011;38377;47.418;18.882;2023-04-01T04:48:39;1.40;;;1.25;;
38379;SDS011;38377;47.418;18.882;2023-04-01T04:51:05;2.00;;;1.17;;
38379;SDS011;38377;47.418;18.882;2023-04-01T04:53:30;2.70;;;1.40;;
38379;SDS011;38377;47.418;18.882;2023-04-01T04:55:56;2.63;;;1.40;;
38379;SDS011;38377;47.418;18.882;2023-04-01T04:58:21;2.35;;;1.58;;
38379;SDS011;38377;47.418;18.882;2023-04-01T05:00:47;2.97;;;1.33;;
38379;SDS011;38377;47.418;18.882;2023-04-01T05:03:13;3.13;;;1.50;;
38379;SDS011;38377;47.418;18.882;2023-04-01T05:05:39;2.67;;;1.60;;
38379;SDS011;38377;47.418;18.882;2023-04-01T05:08:14;4.38;;;1.63;;
38379;SDS011;38377;47.418;18.882;2023-04-01T05:10:40;3.05;;;1.70;;
38379;SDS011;38377;47.418;18.882;2023-04-01T05:13:05;2.00;;;1.25;;
38379;SDS011;38377;47.418;18.882;2023-04-01T05:15:32;3.03;;;1.75;;
38379;SDS011;38377;47.418;18.882;2023-04-01T05:17:58;3.47;;;1.60;;
38379;SDS011;38377;47.418;18.882;2023-04-01T05:20:24;3.30;;;1.90;;
38379;SDS011;38377;47.418;18.882;2023-04-01T05:22:53;3.35;;;1.60;;
38379;SDS011;38377;47.418;18.882;2023-04-01T05:25:21;4.53;;;1.98;;
38379;SDS011;38377;47.418;18.882;2023-04-01T05:27:46;3.55;;;1.90;;
38379;SDS011;38377;47.418;18.882;2023-04-01T05:30:12;2.17;;;1.67;;
38379;SDS011;38377;47.418;18.882;2023-04-01T05:32:38;3.00;;;1.92;;
38379;SDS011;38377;47.418;18.882;2023-04-01T05:35:04;5.80;;;1.77;;
38379;SDS011;38377;47.418;18.882;2023-04-01T05:37:30;3.58;;;1.77;;
38379;SDS011;38377;47.418;18.882;2023-04-01T05:39:55;4.35;;;1.67;;
38379;SDS011;38377;47.418;18.882;2023-04-01T05:42:23;2.90;;;1.67;;
38379;SDS011;38377;47.418;18.882;2023-04-01T05:44:49;2.80;;;1.75;;
38379;SDS011;38377;47.418;18.882;2023-04-01T05:47:15;1.92;;;1.50;;
38379;SDS011;38377;47.418;18.882;2023-04-01T05:49:40;3.83;;;1.80;;
38379;SDS011;38377;47.418;18.882;2023-04-01T05:52:06;7.13;;;2.25;;
38379;SDS011;38377;47.418;18.882;2023-04-01T05:54:32;2.42;;;1.63;;
38379;SDS011;38377;47.418;18.882;2023-04-01T05:56:58;4.00;;;2.30;;
38379;SDS011;38377;47.418;18.882;2023-04-01T05:59:24;3.08;;;1.77;;
38379;SDS011;38377;47.418;18.882;2023-04-01T06:01:50;4.22;;;1.73;;
38379;SDS011;38377;47.418;18.882;2023-04-01T06:04:16;3.90;;;1.90;;
38379;SDS011;38377;47.418;18.882;2023-04-01T06:06:43;4.63;;;1.85;;
38379;SDS011;38377;47.418;18.882;2023-04-01T06:20:18;14.30;;;8.75;;
38379;SDS011;38377;47.418;18.882;2023-04-01T06:23:07;20.58;;;11.15;;
38379;SDS011;38377;47.418;18.882;2023-04-01T06:25:43;19.85;;;12.00;;
38379;SDS011;38377;47.418;18.882;2023-04-01T06:32:14;27.42;;;15.95;;
38379;SDS011;38377;47.418;18.882;2023-04-01T06:45:50;12.68;;;9.52;;
38379;SDS011;38377;47.418;18.882;2023-04-01T06:48:31;5.68;;;3.30;;
38379;SDS011;38377;47.418;18.882;2023-04-01T06:56:28;7.45;;;5.28;;
38379;SDS011;38377;47.418;18.882;2023-04-01T07:01:32;6.28;;;3.13;;
38379;SDS011;38377;47.418;18.882;2023-04-01T07:04:15;4.20;;;3.30;;
38379;SDS011;38377;47.418;18.882;2023-04-01T07:07:11;2.85;;;2.00;;
38379;SDS011;38377;47.418;18.882;2023-04-01T07:09:55;4.25;;;2.45;;
38379;SDS011;38377;47.418;18.882;2023-04-01T07:12:32;5.97;;;2.10;;
38379;SDS011;38377;47.418;18.882;2023-04-01T07:15:24;4.45;;;2.60;;
38379;SDS011;38377;47.418;18.882;2023-04-01T07:17:55;3.87;;;1.57;;
38379;SDS011;38377;47.418;18.882;2023-04-01T07:20:37;4.32;;;1.92;;
38379;SDS011;38377;47.418;18.882;2023-04-01T07:23:08;2.80;;;1.60;;
38379;SDS011;38377;47.418;18.882;2023-04-01T07:25:50;5.38;;;2.15;;
38379;SDS011;38377;47.418;18.882;2023-04-01T07:28:20;4.15;;;1.60;;
38379;SDS011;38377;47.418;18.882;2023-04-01T07:33:42;4.90;;;1.63;;
38379;SDS011;38377;47.418;18.882;2023-04-01T07:39:17;2.45;;;1.10;;
38379;SDS011;38377;47.418;18.882;2023-04-01T07:42:09;2.00;;;1.20;;
38379;SDS011;38377;47.418;18.882;2023-04-01T07:47:44;3.03;;;0.90;;
38379;SDS011;38377;47.418;18.882;2023-04-01T07:50:28;3.38;;;0.85;;
38379;SDS011;38377;47.418;18.882;2023-04-01T07:56:09;2.42;;;1.08;;
38379;SDS011;38377;47.418;18.882;2023-04-01T08:01:12;1.88;;;0.73;;
38379;SDS011;38377;47.418;18.882;2023-04-01T08:15:10;1.42;;;0.80;;
38379;SDS011;38377;47.418;18.882;2023-04-01T08:20:45;2.88;;;0.80;;
38379;SDS011;38377;47.418;18.882;2023-04-01T08:23:16;3.35;;;1.50;;
38379;SDS011;38377;47.418;18.882;2023-04-01T08:25:56;3.72;;;1.63;;
38379;SDS011;38377;47.418;18.882;2023-04-01T08:28:35;2.17;;;1.10;;
38379;SDS011;38377;47.418;18.882;2023-04-01T08:31:07;2.88;;;1.10;;
38379;SDS011;38377;47.418;18.882;2023-04-01T08:33:36;3.85;;;1.02;;
38379;SDS011;38377;47.418;18.882;2023-04-01T08:36:05;2.10;;;0.90;;
38379;SDS011;38377;47.418;18.882;2023-04-01T08:44:24;3.38;;;1.02;;
38379;SDS011;38377;47.418;18.882;2023-04-01T08:53:38;1.35;;;0.98;;
38379;SDS011;38377;47.418;18.882;2023-04-01T09:01:39;2.47;;;1.23;;
38379;SDS011;38377;47.418;18.882;2023-04-01T09:09:44;4.75;;;1.63;;
38379;SDS011;38377;47.418;18.882;2023-04-01T09:26:31;6.63;;;2.65;;
38379;SDS011;38377;47.418;18.882;2023-04-01T09:34:25;3.42;;;1.38;;
38379;SDS011;38377;47.418;18.882;2023-04-01T09:37:17;3.17;;;1.20;;
38379;SDS011;38377;47.418;18.882;2023-04-01T09:40:17;3.15;;;1.10;;
38379;SDS011;38377;47.418;18.882;2023-04-01T09:45:24;4.03;;;1.10;;
38379;SDS011;38377;47.418;18.882;2023-04-01T09:48:14;3.42;;;1.17;;
38379;SDS011;38377;47.418;18.882;2023-04-01T09:51:17;5.00;;;0.90;;
38379;SDS011;38377;47.418;18.882;2023-04-01T10:00:20;3.70;;;1.20;;
38379;SDS011;38377;47.418;18.882;2023-04-01T10:28:33;3.50;;;1.50;;
38379;SDS011;38377;47.418;18.882;2023-04-01T10:48:19;2.15;;;1.02;;
38379;SDS011;38377;47.418;18.882;2023-04-01T10:51:14;2.78;;;1.02;;
38379;SDS011;38377;47.418;18.882;2023-04-01T11:00:01;1.08;;;0.82;;
38379;SDS011;38377;47.418;18.882;2023-04-01T13:34:05;1.92;;;1.08;;
38379;SDS011;38377;47.418;18.882;2023-04-01T13:45:15;3.05;;;1.30;;
38379;SDS011;38377;47.418;18.882;2023-04-01T13:53:00;4.05;;;1.55;;
38379;SDS011;38377;47.418;18.882;2023-04-01T13:55:55;3.35;;;1.52;;
38379;SDS011;38377;47.418;18.882;2023-04-01T14:01:06;1.48;;;1.00;;
38379;SDS011;38377;47.418;18.882;2023-04-01T14:06:29;4.68;;;2.72;;
38379;SDS011;38377;47.418;18.882;2023-04-01T14:22:25;1.20;;;0.82;;
38379;SDS011;38377;47.418;18.882;2023-04-01T14:30:34;2.55;;;1.35;;
38379;SDS011;38377;47.418;18.882;2023-04-01T14:41:51;3.65;;;1.85;;
38379;SDS011;38377;47.418;18.882;2023-04-01T14:44:57;2.38;;;1.60;;
38379;SDS011;38377;47.418;18.882;2023-04-01T14:50:45;2.72;;;1.30;;
38379;SDS011;38377;47.418;18.882;2023-04-01T14:53:17;3.42;;;1.42;;
38379;SDS011;38377;47.418;18.882;2023-04-01T14:58:19;2.83;;;1.50;;
38379;SDS011;38377;47.418;18.882;2023-04-01T15:12:03;3.42;;;1.45;;
38379;SDS011;38377;47.418;18.882;2023-04-01T15:17:24;4.35;;;1.50;;
38379;SDS011;38377;47.418;18.882;2023-04-01T15:20:33;2.92;;;1.13;;
38379;SDS011;38377;47.418;18.882;2023-04-01T15:31:27;2.15;;;1.05;;
38379;SDS011;38377;47.418;18.882;2023-04-01T15:40:07;1.60;;;0.93;;
38379;SDS011;38377;47.418;18.882;2023-04-01T15:59:14;6.72;;;3.15;;
38379;SDS011;38377;47.418;18.882;2023-04-01T16:07:24;2.70;;;1.25;;
38379;SDS011;38377;47.418;18.882;2023-04-01T16:10:09;1.88;;;0.77;;
38379;SDS011;38377;47.418;18.882;2023-04-01T16:15:34;1.60;;;0.90;;
38379;SDS011;38377;47.418;18.882;2023-04-01T16:18:09;1.48;;;0.95;;
38379;SDS011;38377;47.418;18.882;2023-04-01T16:21:12;2.15;;;0.80;;
38379;SDS011;38377;47.418;18.882;2023-04-01T16:23:50;2.45;;;1.00;;
38379;SDS011;38377;47.418;18.882;2023-04-01T16:26:36;1.88;;;1.05;;
38379;SDS011;38377;47.418;18.882;2023-04-01T16:32:50;3.70;;;1.67;;
38379;SDS011;38377;47.418;18.882;2023-04-01T16:38:47;1.30;;;0.60;;
38379;SDS011;38377;47.418;18.882;2023-04-01T16:43:44;1.98;;;0.70;;
38379;SDS011;38377;47.418;18.882;2023-04-01T16:46:35;1.75;;;1.10;;
38379;SDS011;38377;47.418;18.882;2023-04-01T16:51:47;2.47;;;1.10;;
38379;SDS011;38377;47.418;18.882;2023-04-01T16:59:34;1.50;;;1.33;;
38379;SDS011;38377;47.418;18.882;2023-04-01T17:02:12;1.40;;;0.77;;
38379;SDS011;38377;47.418;18.882;2023-04-01T17:52:32;19.60;;;10.00;;
38379;SDS011;38377;47.418;18.882;2023-04-01T18:02:41;19.40;;;11.43;;
38379;SDS011;38377;47.418;18.882;2023-04-01T18:22:21;18.25;;;12.65;;
38379;SDS011;38377;47.418;18.882;2023-04-01T18:30:21;15.25;;;11.95;;
38379;SDS011;38377;47.418;18.882;2023-04-01T18:38:53;12.45;;;9.07;;
38379;SDS011;38377;47.418;18.882;2023-04-01T18:47:21;19.80;;;13.25;;
38379;SDS011;38377;47.418;18.882;2023-04-01T18:50:02;18.83;;;12.30;;
38379;SDS011;38377;47.418;18.882;2023-04-01T18:52:43;12.73;;;8.80;;
38379;SDS011;38377;47.418;18.882;2023-04-01T18:57:54;8.18;;;5.50;;
38379;SDS011;38377;47.418;18.882;2023-04-01T19:00:38;8.90;;;8.00;;
38379;SDS011;38377;47.418;18.882;2023-04-01T19:03:18;14.07;;;10.25;;
38379;SDS011;38377;47.418;18.882;2023-04-01T19:05:56;12.02;;;9.32;;
38379;SDS011;38377;47.418;18.882;2023-04-01T19:08:28;14.93;;;10.47;;
38379;SDS011;38377;47.418;18.882;2023-04-01T19:10:59;10.60;;;7.83;;
38379;SDS011;38377;47.418;18.882;2023-04-01T19:14:00;8.57;;;6.28;;
38379;SDS011;38377;47.418;18.882;2023-04-01T19:21:57;3.28;;;2.83;;
38379;SDS011;38377;47.418;18.882;2023-04-01T19:27:14;3.47;;;2.15;;
38379;SDS011;38377;47.418;18.882;2023-04-01T19:35:06;4.40;;;2.42;;
38379;SDS011;38377;47.418;18.882;2023-04-01T19:37:45;7.45;;;4.60;;
38379;SDS011;38377;47.418;18.882;2023-04-01T19:50:51;10.00;;;4.90;;
38379;SDS011;38377;47.418;18.882;2023-04-01T20:04:21;3.13;;;2.25;;
38379;SDS011;38377;47.418;18.882;2023-04-01T20:07:04;4.65;;;3.10;;
38379;SDS011;38377;47.418;18.882;2023-04-01T20:10:04;4.15;;;2.83;;
38379;SDS011;38377;47.418;18.882;2023-04-01T20:21:05;13.98;;;11.40;;
38379;SDS011;38377;47.418;18.882;2023-04-01T20:23:43;20.75;;;13.68;;
38379;SDS011;38377;47.418;18.882;2023-04-01T20:26:36;17.95;;;11.98;;
38379;SDS011;38377;47.418;18.882;2023-04-01T20:32:06;9.63;;;6.57;;
38379;SDS011;38377;47.418;18.882;2023-04-01T20:37:35;4.43;;;2.42;;
38379;SDS011;38377;47.418;18.882;2023-04-01T20:45:22;3.80;;;2.00;;
38379;SDS011;38377;47.418;18.882;2023-04-01T20:51:03;3.63;;;2.28;;
38379;SDS011;38377;47.418;18.882;2023-04-01T20:56:33;3.92;;;2.85;;
38379;SDS011;38377;47.418;18.882;2023-04-01T21:24:58;4.25;;;3.22;;
38379;SDS011;38377;47.418;18.882;2023-04-01T21:31:27;6.38;;;4.22;;
38379;SDS011;38377;47.418;18.882;2023-04-01T21:36:10;5.50;;;3.95;;
38379;SDS011;38377;47.418;18.882;2023-04-01T21:41:52;6.05;;;3.38;;
38379;SDS011;38377;47.418;18.882;2023-04-01T21:47:57;6.18;;;3.83;;
38379;SDS011;38377;47.418;18.882;2023-04-01T21:58:57;6.47;;;3.92;;
38379;SDS011;38377;47.418;18.882;2023-04-01T22:04:36;5.18;;;3.88;;
38379;SDS011;38377;47.418;18.882;2023-04-01T22:07:25;11.40;;;4.15;;
38379;SDS011;38377;47.418;18.882;2023-04-01T22:10:26;5.45;;;4.10;;
38379;SDS011;38377;47.418;18.882;2023-04-01T22:13:11;6.50;;;3.70;;
38379;SDS011;38377;47.418;18.882;2023-04-01T22:26:59;4.45;;;2.72;;
38379;SDS011;38377;47.418;18.882;2023-04-01T22:29:36;4.20;;;2.20;;
38379;SDS011;38377;47.418;18.882;2023-04-01T22:32:16;5.22;;;3.03;;
38379;SDS011;38377;47.418;18.882;2023-04-01T22:34:50;3.28;;;2.65;;
38379;SDS011;38377;47.418;18.882;2023-04-01T22:40:26;3.67;;;2.47;;
38379;SDS011;38377;47.418;18.882;2023-04-01T22:43:11;2.40;;;1.90;;
38379;SDS011;38377;47.418;18.882;2023-04-01T22:51:56;2.22;;;1.38;;
38379;SDS011;38377;47.418;18.882;2023-04-01T22:56:55;1.90;;;1.25;;
38379;SDS011;38377;47.418;18.882;2023-04-01T23:02:28;1.35;;;0.90;;
38379;SDS011;38377;47.418;18.882;2023-04-01T23:04:56;1.80;;;1.30;;
38379;SDS011;38377;47.418;18.882;2023-04-01T23:10:25;2.33;;;1.75;;
38379;SDS011;38377;47.418;18.882;2023-04-01T23:13:00;2.38;;;1.70;;
38379;SDS011;38377;47.418;18.882;2023-04-01T23:15:27;5.47;;;1.92;;
38379;SDS011;38377;47.418;18.882;2023-04-01T23:20:52;2.92;;;1.95;;
38379;SDS011;38377;47.418;18.882;2023-04-01T23:23:55;2.63;;;1.85;;
38379;SDS011;38377;47.418;18.882;2023-04-01T23:27:03;2.70;;;1.95;;
38379;SDS011;38377;47.418;18.882;2023-04-01T23:29:36;2.80;;;1.60;;
38379;SDS011;38377;47.418;18.882;2023-04-01T23:32:05;1.80;;;1.52;;
38379;SDS011;38377;47.418;18.882;2023-04-01T23:34:46;2.88;;;2.00;;
38379;SDS011;38377;47.418;18.882;2023-04-01T23:37:14;2.50;;;1.50;;
38379;SDS011;38377;47.418;18.882;2023-04-01T23:39:43;2.20;;;1.60;;
38379;SDS011;38377;47.418;18.882;2023-04-01T23:45:11;2.72;;;1.85;;
38379;SDS011;38377;47.418;18.882;2023-04-01T23:47:42;1.95;;;1.50;;
38379;SDS011;38377;47.418;18.882;2023-04-01T23:50:15;1.67;;;1.52;;
38379;SDS011;38377;47.418;18.882;2023-04-01T23:52:44;2.92;;;1.70;;
38379;SDS011;38377;47.418;18.882;2023-04-01T23:55:16;2.42;;;1.70;;
